Time;durP1;ratioP1;P1;durP2;ratioP2;P2;SDS_P1;SDS_P2;PMS_P1;PMS_P2;Temp;Humidity;BMP_temperature;BMP_pressure;BME280_temperature;BME280_humidity;BME280_pressure;Samples;Min_cycle;Max_cycle;Signal;HPM_P1;HPM_P2
2021/10/13 00:02:09;;;;;;;;;;;9.80;96.10;;;;;;5075589;28;20003;-74
2021/10/13 00:04:35;;;;;;;;;;;9.80;96.10;;;;;;5075437;28;19947;-75
2021/10/13 00:07:01;;;;;;;;;;;9.80;96.10;;;;;;5075009;28;19911;-75
2021/10/13 00:09:26;;;;;;;;;;;9.80;96.00;;;;;;5075210;28;19911;-76
2021/10/13 00:11:52;;;;;;;;;;;9.80;96.00;;;;;;5075260;28;20261;-75
2021/10/13 00:14:17;;;;;;;;;;;9.80;95.90;;;;;;5075171;28;19943;-76
2021/10/13 00:16:51;;;;;;;;;;;9.70;95.90;;;;;;5075278;28;19905;-76
2021/10/13 00:19:17;;;;;;;;;;;9.70;95.80;;;;;;5074777;28;19957;-77
2021/10/13 00:21:42;;;;;;;;;;;9.60;95.80;;;;;;5075195;28;19904;-75
2021/10/13 00:24:08;;;;;;;;;;;9.60;95.80;;;;;;5074809;28;19920;-76
2021/10/13 00:26:33;;;;;;;;;;;9.60;95.70;;;;;;5075095;28;19908;-76
2021/10/13 00:28:59;;;;;;;;;;;9.50;95.80;;;;;;5074825;28;19912;-75
2021/10/13 00:31:24;;;;;;;;;;;9.50;95.90;;;;;;5074823;28;19904;-74
2021/10/13 00:33:49;;;;;;;;;;;9.40;95.90;;;;;;5074415;28;19915;-75
2021/10/13 00:36:15;;;;;;;;;;;9.40;96.00;;;;;;5074787;28;19919;-75
2021/10/13 00:38:40;;;;;;;;;;;9.40;96.00;;;;;;5074645;28;20416;-76
2021/10/13 00:41:06;;;;;;;;;;;9.40;96.10;;;;;;5074948;28;20425;-75
2021/10/13 00:43:31;;;;;;;;;;;9.40;96.10;;;;;;5074625;28;20376;-75
2021/10/13 00:45:57;;;;;;;;;;;9.40;96.10;;;;;;5074583;28;20418;-74
2021/10/13 00:48:22;;;;;;;;;;;9.40;96.10;;;;;;5074143;28;20316;-75
2021/10/13 00:50:47;;;;;;;;;;;9.30;96.10;;;;;;5056575;28;19992;-75
2021/10/13 00:53:15;;;;;;;;;;;9.30;96.20;;;;;;5074486;28;19994;-74
2021/10/13 00:55:40;;;;;;;;;;;9.30;96.20;;;;;;5074459;28;20341;-75
2021/10/13 00:58:06;;;;;;;;;;;9.30;96.30;;;;;;5074321;28;19943;-76
2021/10/13 01:00:31;;;;;;;;;;;9.40;96.30;;;;;;5074320;28;19919;-76
2021/10/13 01:03:11;;;;;;;;;;;9.40;96.30;;;;;;5073801;28;19943;-74
2021/10/13 01:05:36;;;;;;;;;;;9.40;96.20;;;;;;5074478;28;20280;-76
2021/10/13 01:08:12;;;;;;;;;;;9.40;96.20;;;;;;5073705;28;20007;-76
2021/10/13 01:10:45;;;;;;;;;;;9.50;96.10;;;;;;5074178;28;19943;-75
2021/10/13 01:13:14;;;;;;;;;;;9.50;96.20;;;;;;5074331;28;19911;-76
2021/10/13 01:16:03;;;;;;;;;;;9.50;96.20;;;;;;5074004;28;19959;-76
2021/10/13 01:18:37;;;;;;;;;;;9.50;96.20;;;;;;5062472;28;19958;-76
2021/10/13 01:21:14;;;;;;;;;;;9.50;96.20;;;;;;5073925;28;19912;-76
2021/10/13 01:23:58;;;;;;;;;;;9.50;96.20;;;;;;5073861;28;19947;-74
2021/10/13 01:26:42;;;;;;;;;;;9.50;96.20;;;;;;5072712;28;19904;-76
2021/10/13 01:29:12;;;;;;;;;;;9.50;96.20;;;;;;5073997;28;19904;-76
2021/10/13 01:31:41;;;;;;;;;;;9.60;96.10;;;;;;5073807;28;20353;-75
2021/10/13 01:34:09;;;;;;;;;;;9.50;96.10;;;;;;5073322;28;19904;-75
2021/10/13 01:36:37;;;;;;;;;;;9.50;96.10;;;;;;5073767;28;20288;-74
2021/10/13 01:39:04;;;;;;;;;;;9.50;96.10;;;;;;5073866;28;19905;-73
2021/10/13 01:41:32;;;;;;;;;;;9.40;96.10;;;;;;5073788;28;19943;-74
2021/10/13 01:43:59;;;;;;;;;;;9.40;96.10;;;;;;5073666;28;20383;-76
2021/10/13 01:46:25;;;;;;;;;;;9.40;96.10;;;;;;5073133;28;19965;-76
2021/10/13 01:48:51;;;;;;;;;;;9.40;96.10;;;;;;5073660;28;19908;-75
2021/10/13 01:51:17;;;;;;;;;;;9.30;96.10;;;;;;5055738;28;20354;-74
2021/10/13 01:53:43;;;;;;;;;;;9.30;96.10;;;;;;5073655;28;20384;-75
2021/10/13 01:56:09;;;;;;;;;;;9.30;96.10;;;;;;5073637;28;19913;-75
2021/10/13 01:58:38;;;;;;;;;;;9.30;96.10;;;;;;5073549;28;20420;-74
2021/10/13 02:01:06;;;;;;;;;;;9.20;96.10;;;;;;5073122;28;19912;-75
2021/10/13 02:03:32;;;;;;;;;;;9.20;96.20;;;;;;5073662;28;19904;-74
2021/10/13 02:06:03;;;;;;;;;;;9.20;96.20;;;;;;5073527;28;19912;-75
2021/10/13 02:08:30;;;;;;;;;;;9.20;96.20;;;;;;5073590;28;19908;-76
2021/10/13 02:10:57;;;;;;;;;;;9.20;96.10;;;;;;5073651;28;19904;-76
2021/10/13 02:13:23;;;;;;;;;;;9.20;96.10;;;;;;5073487;28;19912;-76
2021/10/13 02:15:50;;;;;;;;;;;9.10;96.10;;;;;;5072960;28;19912;-74
2021/10/13 02:18:23;;;;;;;;;;;9.10;96.10;;;;;;5073445;28;19905;-75
2021/10/13 02:20:48;;;;;;;;;;;9.20;96.10;;;;;;5076971;28;19908;-76
2021/10/13 02:23:15;;;;;;;;;;;9.10;96.10;;;;;;5077200;28;19962;-74
2021/10/13 02:25:44;;;;;;;;;;;9.10;96.00;;;;;;5077494;28;19912;-74
2021/10/13 02:28:11;;;;;;;;;;;9.10;96.10;;;;;;5077254;28;19943;-76
2021/10/13 02:30:37;;;;;;;;;;;9.10;96.00;;;;;;5076878;28;20368;-76
2021/10/13 02:33:03;;;;;;;;;;;9.10;96.10;;;;;;5077255;28;19951;-75
2021/10/13 02:35:28;;;;;;;;;;;9.10;96.10;;;;;;5077075;28;19912;-75
2021/10/13 02:37:54;;;;;;;;;;;9.20;96.10;;;;;;5077238;28;19912;-74
2021/10/13 02:40:19;;;;;;;;;;;9.20;96.10;;;;;;5077019;28;20354;-75
2021/10/13 02:42:45;;;;;;;;;;;9.30;96.20;;;;;;5076856;28;19904;-75
2021/10/13 02:45:10;;;;;;;;;;;9.40;96.10;;;;;;5076532;28;19915;-75
2021/10/13 02:48:02;;;;;;;;;;;9.40;96.10;;;;;;5076981;28;19905;-76
2021/10/13 02:50:35;;;;;;;;;;;9.50;96.10;;;;;;5072719;28;20004;-74
2021/10/13 02:53:00;;;;;;;;;;;9.50;96.00;;;;;;5076608;28;20414;-74
2021/10/13 02:55:30;;;;;;;;;;;9.60;96.00;;;;;;5076586;28;19912;-76
2021/10/13 02:58:01;;;;;;;;;;;9.60;96.00;;;;;;5076850;28;20353;-76
2021/10/13 03:00:27;;;;;;;;;;;9.60;96.00;;;;;;5076322;28;19912;-76
2021/10/13 03:02:58;;;;;;;;;;;9.70;96.10;;;;;;5076739;28;19950;-76
2021/10/13 03:05:24;;;;;;;;;;;9.70;96.00;;;;;;5076648;28;20352;-76
2021/10/13 03:07:50;;;;;;;;;;;9.80;96.00;;;;;;5076616;28;19904;-76
2021/10/13 03:10:16;;;;;;;;;;;9.80;96.00;;;;;;5076375;28;20011;-73
2021/10/13 03:12:51;;;;;;;;;;;9.80;96.00;;;;;;5076535;28;19966;-75
2021/10/13 03:15:17;;;;;;;;;;;9.80;96.00;;;;;;5075754;28;19912;-75
2021/10/13 03:17:46;;;;;;;;;;;9.80;96.00;;;;;;5076386;28;19904;-74
2021/10/13 03:20:12;;;;;;;;;;;9.80;96.00;;;;;;5076315;28;19911;-75
2021/10/13 03:22:38;;;;;;;;;;;9.90;95.90;;;;;;5076116;28;19962;-75
2021/10/13 03:25:04;;;;;;;;;;;9.80;96.00;;;;;;5076094;28;19936;-76
2021/10/13 03:27:29;;;;;;;;;;;9.80;96.10;;;;;;5076147;28;19911;-75
2021/10/13 03:29:55;;;;;;;;;;;9.80;96.20;;;;;;5075482;28;19970;-74
2021/10/13 03:32:21;;;;;;;;;;;9.80;96.20;;;;;;5076077;28;19923;-76
2021/10/13 03:34:47;;;;;;;;;;;9.80;96.20;;;;;;5075933;28;19963;-75
2021/10/13 03:37:13;;;;;;;;;;;9.80;96.20;;;;;;5075987;28;20345;-75
2021/10/13 03:39:38;;;;;;;;;;;9.80;96.60;;;;;;5075827;28;19950;-74
2021/10/13 03:42:04;;;;;;;;;;;9.80;96.40;;;;;;5075863;28;19912;-74
2021/10/13 03:44:29;;;;;;;;;;;9.80;96.40;;;;;;5075330;28;19905;-76
2021/10/13 03:46:55;;;;;;;;;;;9.80;96.40;;;;;;5075848;28;20387;-74
2021/10/13 03:49:20;;;;;;;;;;;9.80;96.30;;;;;;5075441;28;19908;-75
2021/10/13 03:51:46;;;;;;;;;;;9.80;96.30;;;;;;5075680;28;19904;-75
2021/10/13 03:54:11;;;;;;;;;;;9.90;96.30;;;;;;5075609;28;19999;-74
2021/10/13 03:56:36;;;;;;;;;;;9.80;96.20;;;;;;5075444;28;19908;-74
2021/10/13 03:59:02;;;;;;;;;;;9.90;96.20;;;;;;5075067;28;20294;-74
2021/10/13 04:01:27;;;;;;;;;;;9.90;96.20;;;;;;5075385;28;19912;-74
2021/10/13 04:03:53;;;;;;;;;;;9.90;96.10;;;;;;5075383;28;19904;-74
2021/10/13 04:06:18;;;;;;;;;;;9.90;96.10;;;;;;5075372;28;19904;-75
2021/10/13 04:08:44;;;;;;;;;;;9.90;96.10;;;;;;5057334;28;20041;-74
2021/10/13 04:11:09;;;;;;;;;;;9.90;96.10;;;;;;5075263;28;19905;-74
2021/10/13 04:13:35;;;;;;;;;;;10.00;96.10;;;;;;5074873;28;19950;-73
2021/10/13 04:16:00;;;;;;;;;;;9.90;96.10;;;;;;5075165;28;19955;-75
2021/10/13 04:18:26;;;;;;;;;;;10.00;96.10;;;;;;5075194;28;19905;-76
2021/10/13 04:20:51;;;;;;;;;;;10.10;96.20;;;;;;5057119;28;19970;-74
2021/10/13 04:23:17;;;;;;;;;;;10.10;96.10;;;;;;5074853;28;19986;-74
2021/10/13 04:25:43;;;;;;;;;;;10.20;96.10;;;;;;5075034;28;19911;-74
2021/10/13 04:28:09;;;;;;;;;;;10.20;96.00;;;;;;5074412;28;19946;-73
2021/10/13 04:30:37;;;;;;;;;;;10.20;95.90;;;;;;5074857;28;19904;-74
2021/10/13 04:33:03;;;;;;;;;;;10.20;95.90;;;;;;5056875;28;20346;-74
2021/10/13 04:35:29;;;;;;;;;;;10.30;96.00;;;;;;5074804;28;19912;-74
2021/10/13 04:37:54;;;;;;;;;;;10.30;95.90;;;;;;5074788;28;20269;-73
2021/10/13 04:40:19;;;;;;;;;;;10.30;95.90;;;;;;5074232;28;19909;-74
2021/10/13 04:42:45;;;;;;;;;;;10.30;95.90;;;;;;5073802;28;19995;-74
2021/10/13 04:45:10;;;;;;;;;;;10.30;95.80;;;;;;5074473;28;19912;-74
2021/10/13 04:47:36;;;;;;;;;;;10.30;95.90;;;;;;5074611;28;19911;-73
2021/10/13 04:50:01;;;;;;;;;;;10.30;95.90;;;;;;5056682;28;20396;-74
2021/10/13 04:52:28;;;;;;;;;;;10.40;96.00;;;;;;5074198;28;19943;-75
2021/10/13 04:54:53;;;;;;;;;;;10.30;96.00;;;;;;5073957;28;19947;-76
2021/10/13 04:57:19;;;;;;;;;;;10.30;96.00;;;;;;5074427;28;19997;-76
2021/10/13 04:59:44;;;;;;;;;;;10.30;96.00;;;;;;5074293;28;19904;-74
2021/10/13 05:02:10;;;;;;;;;;;10.40;96.00;;;;;;5074175;28;19909;-75
2021/10/13 05:04:35;;;;;;;;;;;10.30;96.00;;;;;;5074360;28;19904;-75
2021/10/13 05:07:00;;;;;;;;;;;10.30;95.90;;;;;;5074543;28;19991;-75
2021/10/13 05:09:26;;;;;;;;;;;10.30;95.90;;;;;;5055934;28;19987;-74
2021/10/13 05:11:51;;;;;;;;;;;10.30;96.00;;;;;;5074174;28;20000;-74
2021/10/13 05:14:17;;;;;;;;;;;10.30;96.00;;;;;;5073926;28;19999;-76
2021/10/13 05:16:42;;;;;;;;;;;10.30;96.10;;;;;;5074169;28;19950;-75
2021/10/13 05:19:08;;;;;;;;;;;10.30;96.10;;;;;;5074046;28;19904;-74
2021/10/13 05:21:34;;;;;;;;;;;10.30;96.00;;;;;;5073944;28;19930;-74
2021/10/13 05:23:59;;;;;;;;;;;10.20;96.10;;;;;;5073345;28;19916;-76
2021/10/13 05:26:25;;;;;;;;;;;10.20;96.00;;;;;;5074165;28;19911;-75
2021/10/13 05:28:50;;;;;;;;;;;10.20;96.00;;;;;;5073927;28;19985;-75
2021/10/13 05:31:16;;;;;;;;;;;10.20;95.90;;;;;;5055932;28;19905;-74
2021/10/13 05:33:41;;;;;;;;;;;10.10;95.80;;;;;;5074063;28;19911;-76
2021/10/13 05:36:07;;;;;;;;;;;10.00;95.90;;;;;;5073885;28;19916;-74
2021/10/13 05:38:32;;;;;;;;;;;10.00;95.90;;;;;;5073291;28;20376;-73
2021/10/13 05:40:58;;;;;;;;;;;9.90;95.90;;;;;;5073575;28;19918;-74
2021/10/13 05:43:23;;;;;;;;;;;9.90;96.00;;;;;;5073650;28;19911;-73
2021/10/13 05:45:48;;;;;;;;;;;9.90;96.10;;;;;;5073602;28;20296;-73
2021/10/13 05:48:15;;;;;;;;;;;9.80;96.10;;;;;;5055512;28;20440;-75
2021/10/13 05:50:40;;;;;;;;;;;9.80;96.10;;;;;;5073585;28;19904;-73
2021/10/13 05:53:06;;;;;;;;;;;9.80;96.10;;;;;;5072963;28;19909;-73
2021/10/13 05:55:31;;;;;;;;;;;9.70;96.10;;;;;;5073490;28;19912;-75
2021/10/13 05:57:57;;;;;;;;;;;9.70;96.10;;;;;;5073547;28;19912;-74
2021/10/13 06:00:26;;;;;;;;;;;9.70;96.20;;;;;;5055359;28;20058;-75
2021/10/13 06:02:52;;;;;;;;;;;9.70;96.20;;;;;;5073454;28;19908;-75
2021/10/13 06:05:17;;;;;;;;;;;9.70;96.20;;;;;;5073323;28;20327;-75
2021/10/13 06:07:43;;;;;;;;;;;9.80;96.20;;;;;;5072889;28;20371;-74
2021/10/13 06:10:08;;;;;;;;;;;9.80;96.20;;;;;;5055487;28;20349;-75
2021/10/13 06:12:34;;;;;;;;;;;9.90;96.20;;;;;;5073359;28;19904;-75
2021/10/13 06:14:59;;;;;;;;;;;9.90;96.20;;;;;;5073218;28;19913;-76
2021/10/13 06:17:25;;;;;;;;;;;10.00;96.10;;;;;;5073616;28;19931;-77
2021/10/13 06:19:50;;;;;;;;;;;10.00;96.10;;;;;;5073366;28;20283;-73
2021/10/13 06:22:16;;;;;;;;;;;10.10;96.10;;;;;;5072734;28;20296;-76
2021/10/13 06:24:41;;;;;;;;;;;10.20;96.10;;;;;;5073153;28;19916;-78
2021/10/13 06:27:07;;;;;;;;;;;10.30;96.00;;;;;;5073140;28;19954;-76
2021/10/13 06:29:32;;;;;;;;;;;10.30;96.00;;;;;;5073231;28;19958;-75
2021/10/13 06:31:58;;;;;;;;;;;10.40;96.00;;;;;;5087102;28;19904;-76
2021/10/13 06:34:23;;;;;;;;;;;10.50;96.00;;;;;;5090515;28;19908;-76
2021/10/13 06:36:49;;;;;;;;;;;10.50;95.90;;;;;;5090508;28;19985;-75
2021/10/13 06:39:14;;;;;;;;;;;10.60;95.90;;;;;;5090515;28;19939;-76
2021/10/13 06:41:39;;;;;;;;;;;10.60;95.90;;;;;;5090643;28;19954;-75
2021/10/13 06:44:05;;;;;;;;;;;10.70;95.80;;;;;;5089375;28;20344;-75
2021/10/13 06:46:31;;;;;;;;;;;10.70;96.10;;;;;;5091712;28;19908;-76
2021/10/13 06:48:56;;;;;;;;;;;10.80;95.80;;;;;;5092086;28;19904;-76
2021/10/13 06:51:21;;;;;;;;;;;10.80;95.80;;;;;;5092932;28;19912;-76
2021/10/13 06:53:47;;;;;;;;;;;10.90;95.80;;;;;;5092874;28;19911;-76
2021/10/13 06:56:13;;;;;;;;;;;10.90;95.80;;;;;;5092924;28;19912;-76
2021/10/13 06:58:38;;;;;;;;;;;11.00;95.80;;;;;;5093247;28;19991;-76
2021/10/13 07:01:04;;;;;;;;;;;11.00;95.70;;;;;;5093177;28;19947;-76
2021/10/13 07:03:29;;;;;;;;;;;11.00;95.70;;;;;;5093064;28;20322;-76
2021/10/13 07:05:55;;;;;;;;;;;11.10;95.70;;;;;;5094514;28;19904;-76
2021/10/13 07:08:20;;;;;;;;;;;11.10;95.70;;;;;;5096474;28;19908;-75
2021/10/13 07:10:46;;;;;;;;;;;11.10;95.70;;;;;;5096762;28;19904;-76
2021/10/13 07:13:11;;;;;;;;;;;11.10;95.70;;;;;;5078443;28;19904;-76
2021/10/13 07:15:37;;;;;;;;;;;11.10;95.60;;;;;;5096559;28;19912;-77
2021/10/13 07:18:03;;;;;;;;;;;11.10;95.70;;;;;;5096320;28;19904;-77
2021/10/13 07:20:28;;;;;;;;;;;11.10;95.70;;;;;;5095943;28;19904;-76
2021/10/13 07:22:54;;;;;;;;;;;11.10;95.80;;;;;;5096253;28;19916;-75
2021/10/13 07:25:23;;;;;;;;;;;11.20;95.80;;;;;;5096354;28;20356;-74
2021/10/13 07:27:49;;;;;;;;;;;11.20;95.80;;;;;;5096273;28;20375;-76
2021/10/13 07:30:17;;;;;;;;;;;11.30;95.80;;;;;;5096340;28;19999;-78
2021/10/13 07:32:43;;;;;;;;;;;11.30;95.70;;;;;;5096180;28;19904;-75
2021/10/13 07:35:09;;;;;;;;;;;11.30;95.80;;;;;;5095637;28;19912;-77
2021/10/13 07:37:34;;;;;;;;;;;11.40;95.80;;;;;;5096208;28;19904;-77
2021/10/13 07:40:01;;;;;;;;;;;11.50;95.80;;;;;;5096177;28;19951;-76
2021/10/13 07:42:27;;;;;;;;;;;11.50;95.80;;;;;;5095872;28;19910;-77
2021/10/13 07:44:52;;;;;;;;;;;11.60;95.70;;;;;;5095978;28;19904;-76
2021/10/13 07:47:17;;;;;;;;;;;11.60;95.70;;;;;;5096048;28;19994;-75
2021/10/13 07:49:43;;;;;;;;;;;11.50;95.80;;;;;;5095440;28;19955;-74
2021/10/13 07:52:08;;;;;;;;;;;11.50;95.90;;;;;;5095888;28;19904;-76
2021/10/13 07:54:34;;;;;;;;;;;11.60;95.80;;;;;;5095829;28;19986;-76
2021/10/13 07:56:59;;;;;;;;;;;11.60;95.80;;;;;;5095582;28;19908;-76
2021/10/13 07:59:25;;;;;;;;;;;11.60;95.80;;;;;;5077677;28;19904;-75
2021/10/13 08:01:50;;;;;;;;;;;11.60;95.70;;;;;;5095704;28;19908;-76
2021/10/13 08:04:15;;;;;;;;;;;11.60;95.80;;;;;;5095186;28;20368;-76
2021/10/13 08:06:41;;;;;;;;;;;11.60;95.90;;;;;;5095538;28;19990;-76
2021/10/13 08:09:07;;;;;;;;;;;11.70;95.90;;;;;;5095457;28;20002;-77
2021/10/13 08:11:32;;;;;;;;;;;11.70;95.90;;;;;;5095476;28;19904;-77
2021/10/13 08:13:58;;;;;;;;;;;11.80;95.90;;;;;;5095416;28;19934;-77
2021/10/13 08:16:24;;;;;;;;;;;11.90;95.80;;;;;;5094623;28;19912;-77
2021/10/13 08:18:49;;;;;;;;;;;12.00;95.80;;;;;;5094831;28;19949;-75
2021/10/13 08:21:14;;;;;;;;;;;12.20;95.80;;;;;;5095220;28;19965;-77
2021/10/13 08:23:40;;;;;;;;;;;12.30;95.70;;;;;;5095125;28;19973;-77
2021/10/13 08:26:05;;;;;;;;;;;12.30;95.60;;;;;;5093794;28;19904;-77
2021/10/13 08:28:31;;;;;;;;;;;12.30;95.60;;;;;;5095187;28;20283;-77
2021/10/13 08:30:56;;;;;;;;;;;12.30;95.60;;;;;;5095427;28;19904;-77
2021/10/13 08:33:22;;;;;;;;;;;12.30;95.70;;;;;;5094666;28;19904;-78
2021/10/13 08:35:48;;;;;;;;;;;12.30;95.80;;;;;;5094970;28;19926;-78
2021/10/13 08:38:14;;;;;;;;;;;12.40;95.80;;;;;;5094977;28;20000;-78
2021/10/13 08:40:40;;;;;;;;;;;12.40;95.80;;;;;;5094930;28;19911;-78
2021/10/13 08:43:06;;;;;;;;;;;12.40;95.80;;;;;;5094826;28;19962;-78
2021/10/13 08:45:33;;;;;;;;;;;12.50;95.80;;;;;;5094700;28;20422;-77
2021/10/13 08:47:59;;;;;;;;;;;12.50;95.80;;;;;;5094429;28;19904;-80
2021/10/13 08:50:25;;;;;;;;;;;12.50;95.70;;;;;;5093552;28;19911;-79
2021/10/13 08:52:51;;;;;;;;;;;12.50;95.80;;;;;;5094851;28;20084;-78
2021/10/13 08:55:17;;;;;;;;;;;12.60;95.90;;;;;;5094573;28;19955;-79
2021/10/13 08:57:42;;;;;;;;;;;12.60;95.80;;;;;;5076352;28;19930;-79
2021/10/13 09:00:08;;;;;;;;;;;12.70;95.90;;;;;;5094602;28;19911;-79
2021/10/13 09:02:38;;;;;;;;;;;12.80;95.90;;;;;;5094065;28;19904;-78
2021/10/13 09:05:11;;;;;;;;;;;12.80;95.80;;;;;;5094527;28;19957;-78
2021/10/13 09:07:37;;;;;;;;;;;12.90;95.80;;;;;;5094387;28;19904;-78
2021/10/13 09:10:03;;;;;;;;;;;12.90;95.80;;;;;;5094214;28;19939;-75
2021/10/13 09:12:29;;;;;;;;;;;12.90;95.80;;;;;;5076223;28;19904;-75
2021/10/13 09:15:05;;;;;;;;;;;13.00;95.70;;;;;;5094398;28;19912;-75
2021/10/13 09:17:31;;;;;;;;;;;12.90;95.60;;;;;;5093993;28;19908;-77
2021/10/13 09:19:56;;;;;;;;;;;12.90;95.70;;;;;;5094224;28;19948;-76
2021/10/13 09:22:22;;;;;;;;;;;12.90;95.80;;;;;;5094021;28;19970;-76
2021/10/13 09:24:51;;;;;;;;;;;12.80;95.80;;;;;;5094119;28;20391;-75
2021/10/13 09:27:17;;;;;;;;;;;12.90;95.90;;;;;;5094139;28;19904;-77
2021/10/13 09:29:43;;;;;;;;;;;12.90;95.90;;;;;;5093792;28;19911;-77
2021/10/13 09:32:09;;;;;;;;;;;12.90;95.90;;;;;;5075471;28;19994;-76
2021/10/13 09:34:34;;;;;;;;;;;13.00;95.90;;;;;;5093937;28;20002;-76
2021/10/13 09:37:00;;;;;;;;;;;13.10;95.90;;;;;;5093871;28;20375;-75
2021/10/13 09:39:29;;;;;;;;;;;13.10;95.80;;;;;;5094080;28;19908;-76
2021/10/13 09:41:54;;;;;;;;;;;13.20;95.80;;;;;;5093900;28;19950;-77
2021/10/13 09:44:20;;;;;;;;;;;13.20;95.80;;;;;;5094031;28;19908;-76
2021/10/13 09:46:47;;;;;;;;;;;13.30;95.90;;;;;;5093411;28;20357;-76
2021/10/13 09:49:12;;;;;;;;;;;13.40;95.80;;;;;;5093797;28;19955;-76
2021/10/13 09:51:38;;;;;;;;;;;13.40;95.80;;;;;;5093974;28;19927;-76
2021/10/13 09:54:07;;;;;;;;;;;13.40;95.80;;;;;;5093802;28;20397;-77
2021/10/13 09:56:34;;;;;;;;;;;13.40;95.90;;;;;;5093778;28;19912;-76
2021/10/13 09:59:07;;;;;;;;;;;13.50;95.90;;;;;;5093872;28;20369;-75
2021/10/13 10:01:33;;;;;;;;;;;13.60;95.90;;;;;;5093329;28;20024;-76
2021/10/13 10:03:58;;;;;;;;;;;13.70;96.00;;;;;;5093705;28;19955;-77
2021/10/13 10:06:27;;;;;;;;;;;13.70;95.90;;;;;;5093771;28;19904;-76
2021/10/13 10:08:52;;;;;;;;;;;13.80;95.80;;;;;;5075627;28;20353;-76
2021/10/13 10:11:34;;;;;;;;;;;13.90;95.80;;;;;;5093673;28;19912;-76
2021/10/13 10:14:01;;;;;;;;;;;14.00;95.80;;;;;;5093129;28;19956;-77
2021/10/13 10:16:27;;;;;;;;;;;14.20;95.70;;;;;;5093621;28;19919;-77
2021/10/13 10:18:52;;;;;;;;;;;14.30;95.80;;;;;;5093534;28;19904;-77
2021/10/13 10:21:27;;;;;;;;;;;14.40;95.80;;;;;;5093684;28;19991;-77
2021/10/13 10:23:56;;;;;;;;;;;14.40;95.70;;;;;;5093468;28;19916;-76
2021/10/13 10:26:25;;;;;;;;;;;14.40;95.80;;;;;;5093631;28;19951;-77
2021/10/13 10:28:50;;;;;;;;;;;14.40;95.80;;;;;;5092931;28;19904;-77
2021/10/13 10:31:28;;;;;;;;;;;14.50;95.80;;;;;;5093636;28;20395;-76
2021/10/13 10:34:02;;;;;;;;;;;14.60;95.80;;;;;;5093533;28;19904;-75
2021/10/13 10:36:28;;;;;;;;;;;14.50;95.70;;;;;;5093301;28;19916;-76
2021/10/13 10:38:53;;;;;;;;;;;14.40;95.90;;;;;;5093372;28;20253;-76
2021/10/13 10:41:19;;;;;;;;;;;14.50;96.00;;;;;;5096004;28;20378;-76
2021/10/13 10:43:44;;;;;;;;;;;14.60;95.90;;;;;;5096904;28;19904;-76
2021/10/13 10:46:10;;;;;;;;;;;14.70;95.80;;;;;;5097312;28;20242;-75
2021/10/13 10:48:43;;;;;;;;;;;14.80;95.80;;;;;;5097128;28;20414;-76
2021/10/13 10:51:08;;;;;;;;;;;14.80;95.70;;;;;;5097069;28;19916;-75
2021/10/13 10:53:36;;;;;;;;;;;14.80;95.80;;;;;;5097122;28;20655;-76
2021/10/13 10:56:10;;;;;;;;;;;14.70;95.80;;;;;;5096888;28;19916;-76
2021/10/13 10:58:36;;;;;;;;;;;14.70;95.80;;;;;;5096770;28;19947;-76
2021/10/13 11:01:12;;;;;;;;;;;14.60;95.80;;;;;;5096950;28;19912;-76
2021/10/13 11:03:39;;;;;;;;;;;14.50;95.80;;;;;;5078788;28;20356;-76
2021/10/13 11:06:18;;;;;;;;;;;14.40;95.90;;;;;;5096738;28;19912;-76
2021/10/13 11:09:02;;;;;;;;;;;14.30;95.90;;;;;;5096733;28;19954;-76
2021/10/13 11:11:30;;;;;;;;;;;14.30;95.90;;;;;;5078644;28;19904;-77
2021/10/13 11:14:00;;;;;;;;;;;14.30;95.90;;;;;;5078070;28;20003;-77
2021/10/13 11:16:26;;;;;;;;;;;14.40;95.90;;;;;;5096603;28;20361;-77
2021/10/13 11:18:52;;;;;;;;;;;14.40;95.90;;;;;;5096459;28;19950;-77
2021/10/13 11:21:18;;;;;;;;;;;14.40;95.90;;;;;;5096713;28;19920;-77
2021/10/13 11:23:45;;;;;;;;;;;14.50;95.90;;;;;;5096438;28;19916;-77
2021/10/13 11:26:10;;;;;;;;;;;14.50;95.80;;;;;;5096463;28;19908;-76
2021/10/13 11:28:37;;;;;;;;;;;14.60;95.80;;;;;;5095837;28;19961;-77
2021/10/13 11:31:04;;;;;;;;;;;14.80;95.70;;;;;;5096323;28;19954;-76
2021/10/13 11:33:29;;;;;;;;;;;14.80;95.80;;;;;;5096479;28;20367;-76
2021/10/13 11:35:59;;;;;;;;;;;14.90;95.80;;;;;;5078275;28;19916;-76
2021/10/13 11:38:24;;;;;;;;;;;15.10;95.80;;;;;;5078232;28;19904;-77
2021/10/13 11:40:50;;;;;;;;;;;15.20;95.70;;;;;;5095870;28;20117;-76
2021/10/13 11:43:18;;;;;;;;;;;15.30;95.70;;;;;;5095945;28;19927;-76
2021/10/13 11:45:47;;;;;;;;;;;15.30;95.70;;;;;;5096275;28;19904;-75
2021/10/13 11:48:21;;;;;;;;;;;15.30;95.70;;;;;;5096221;28;20409;-76
2021/10/13 11:50:46;;;;;;;;;;;15.30;95.70;;;;;;5095907;28;20423;-77
2021/10/13 11:53:12;;;;;;;;;;;15.20;95.70;;;;;;5095816;28;19938;-76
2021/10/13 11:55:38;;;;;;;;;;;15.10;95.70;;;;;;5095337;28;19912;-77
2021/10/13 11:58:04;;;;;;;;;;;15.10;95.80;;;;;;5095785;28;20037;-77
2021/10/13 12:00:31;;;;;;;;;;;15.30;95.90;;;;;;5095611;28;19965;-77
2021/10/13 12:03:12;;;;;;;;;;;15.40;95.90;;;;;;5095826;28;19904;-75
2021/10/13 12:05:39;;;;;;;;;;;15.50;95.80;;;;;;5095783;28;19904;-76
2021/10/13 12:08:10;;;;;;;;;;;15.60;95.70;;;;;;5095592;28;20393;-77
2021/10/13 12:10:56;;;;;;;;;;;15.70;95.80;;;;;;5095061;28;19911;-75
2021/10/13 12:13:28;;;;;;;;;;;15.70;96.00;;;;;;5081178;28;19950;-77
2021/10/13 12:16:01;;;;;;;;;;;15.80;95.80;;;;;;5095445;28;19934;-77
2021/10/13 12:18:30;;;;;;;;;;;15.90;96.20;;;;;;5095239;28;19904;-76
2021/10/13 12:21:02;;;;;;;;;;;15.90;95.60;;;;;;5095398;28;19991;-77
2021/10/13 12:23:28;;;;;;;;;;;15.80;95.60;;;;;;5095112;28;19916;-77
2021/10/13 12:25:54;;;;;;;;;;;15.70;95.70;;;;;;5094780;28;19904;-77
2021/10/13 12:28:21;;;;;;;;;;;15.80;95.90;;;;;;5095256;28;19910;-76
2021/10/13 12:30:55;;;;;;;;;;;16.00;95.80;;;;;;5076964;28;19903;-78
2021/10/13 12:33:20;;;;;;;;;;;15.80;95.30;;;;;;5095345;28;19908;-77
2021/10/13 12:35:46;;;;;;;;;;;15.80;95.80;;;;;;5094859;28;19912;-76
2021/10/13 12:38:13;;;;;;;;;;;15.90;96.20;;;;;;5094932;28;19904;-77
2021/10/13 12:40:38;;;;;;;;;;;16.00;95.80;;;;;;5076263;28;19981;-77
2021/10/13 12:43:21;;;;;;;;;;;16.00;95.60;;;;;;5094896;28;20353;-77
2021/10/13 12:45:46;;;;;;;;;;;15.90;95.60;;;;;;5094871;28;19954;-77
2021/10/13 12:48:12;;;;;;;;;;;15.90;95.50;;;;;;5095046;28;19904;-77
2021/10/13 12:50:38;;;;;;;;;;;15.90;95.60;;;;;;5094901;28;19904;-77
2021/10/13 12:53:03;;;;;;;;;;;15.90;95.60;;;;;;5094972;28;19966;-78
2021/10/13 12:55:29;;;;;;;;;;;15.90;95.70;;;;;;5094301;28;20015;-76
2021/10/13 12:57:55;;;;;;;;;;;15.90;95.50;;;;;;5094832;28;20364;-77
2021/10/13 13:00:20;;;;;;;;;;;15.80;95.40;;;;;;5094699;28;20372;-76
2021/10/13 13:02:45;;;;;;;;;;;15.60;95.40;;;;;;5093879;28;20011;-70
2021/10/13 13:05:11;;;;;;;;;;;15.40;95.70;;;;;;5094443;28;20272;-76
2021/10/13 13:07:36;;;;;;;;;;;15.50;95.80;;;;;;5094485;28;20348;-76
2021/10/13 13:10:02;;;;;;;;;;;15.40;95.60;;;;;;5094062;28;19904;-76
2021/10/13 13:12:27;;;;;;;;;;;15.40;95.70;;;;;;5094304;28;19910;-77
2021/10/13 13:14:53;;;;;;;;;;;15.30;95.70;;;;;;5094212;28;19998;-75
2021/10/13 13:17:21;;;;;;;;;;;15.30;95.80;;;;;;5092152;28;20329;-76
2021/10/13 13:19:46;;;;;;;;;;;15.40;95.80;;;;;;5091505;28;19911;-77
2021/10/13 13:22:12;;;;;;;;;;;15.40;95.70;;;;;;5093511;28;20296;-77
2021/10/13 13:24:37;;;;;;;;;;;15.50;95.60;;;;;;5093420;28;19923;-76
2021/10/13 13:27:03;;;;;;;;;;;15.50;95.60;;;;;;5094195;28;20357;-75
2021/10/13 13:29:28;;;;;;;;;;;15.50;95.70;;;;;;5094200;28;19940;-77
2021/10/13 13:31:54;;;;;;;;;;;15.50;95.60;;;;;;5093963;28;19908;-76
2021/10/13 13:34:19;;;;;;;;;;;15.50;95.60;;;;;;5094049;28;19911;-76
2021/10/13 13:36:45;;;;;;;;;;;15.50;95.60;;;;;;5094089;28;19919;-76
2021/10/13 13:39:10;;;;;;;;;;;15.50;95.50;;;;;;5094186;28;20338;-74
2021/10/13 13:41:36;;;;;;;;;;;15.50;95.50;;;;;;5094049;28;19904;-77
2021/10/13 13:44:01;;;;;;;;;;;15.50;95.50;;;;;;5093812;28;19903;-77
2021/10/13 13:46:27;;;;;;;;;;;15.50;95.60;;;;;;5093920;28;19947;-76
2021/10/13 13:48:52;;;;;;;;;;;15.40;95.50;;;;;;5092897;28;20371;-75
2021/10/13 13:51:18;;;;;;;;;;;15.30;95.60;;;;;;5093509;28;19904;-77
2021/10/13 13:53:44;;;;;;;;;;;15.20;95.70;;;;;;5093353;28;20242;-75
2021/10/13 13:56:10;;;;;;;;;;;15.10;95.70;;;;;;5093891;28;20272;-76
2021/10/13 13:58:35;;;;;;;;;;;15.00;95.80;;;;;;5093866;28;20322;-75
2021/10/13 14:01:01;;;;;;;;;;;14.90;95.80;;;;;;5093631;28;20360;-77
2021/10/13 14:03:26;;;;;;;;;;;14.90;95.70;;;;;;5093588;28;19904;-74
2021/10/13 14:05:52;;;;;;;;;;;14.80;95.70;;;;;;5075171;28;20424;-76
2021/10/13 14:08:17;;;;;;;;;;;14.70;95.70;;;;;;5093537;28;19975;-76
2021/10/13 14:10:43;;;;;;;;;;;14.60;95.60;;;;;;5093613;28;19904;-76
2021/10/13 14:13:09;;;;;;;;;;;14.40;95.60;;;;;;5093532;28;19947;-77
2021/10/13 14:15:34;;;;;;;;;;;14.20;95.60;;;;;;5096750;28;19912;-77
2021/10/13 14:18:00;;;;;;;;;;;14.00;95.80;;;;;;5079567;28;19930;-75
2021/10/13 14:20:25;;;;;;;;;;;13.90;95.80;;;;;;5095950;28;19911;-75